createdAt,value
2022-11-15T00:02:44.963Z,-1.62
2022-11-15T00:05:35.882Z,-1.65
2022-11-15T00:08:23.071Z,-1.67
2022-11-15T00:11:13.417Z,-1.75
2022-11-15T00:14:03.812Z,-1.81
2022-11-15T00:16:51.263Z,-1.79
2022-11-15T00:19:38.360Z,-1.79
2022-11-15T00:22:25.838Z,-1.91
2022-11-15T00:25:12.865Z,-1.76
2022-11-15T00:28:01.379Z,-1.74
2022-11-15T00:30:48.531Z,-1.84
2022-11-15T00:33:36.275Z,-1.73
2022-11-15T00:36:23.539Z,-1.76
2022-11-15T00:39:10.683Z,-1.66
2022-11-15T00:41:58.140Z,-1.62
2022-11-15T00:44:45.389Z,-1.59
2022-11-15T00:47:33.628Z,-1.52
2022-11-15T00:50:20.868Z,-1.46
2022-11-15T00:53:08.244Z,-1.43
2022-11-15T00:55:55.655Z,-1.38
2022-11-15T00:58:42.899Z,-1.38
2022-11-15T01:01:31.252Z,-1.39
2022-11-15T01:04:18.566Z,-1.39
2022-11-15T01:07:06.048Z,-1.38
2022-11-15T01:09:53.537Z,-1.31
2022-11-15T01:12:40.832Z,-1.19
2022-11-15T01:15:27.960Z,-1.13
2022-11-15T01:18:14.765Z,-1.09
2022-11-15T01:21:01.712Z,-1.09
2022-11-15T01:23:49.155Z,-1.07
2022-11-15T01:26:36.143Z,-1.08
2022-11-15T01:29:23.393Z,-1.04
2022-11-15T01:32:10.900Z,-0.96
2022-11-15T01:34:57.959Z,-1.04
2022-11-15T01:37:44.998Z,-0.91
2022-11-15T01:40:32.120Z,-0.87
2022-11-15T01:43:36.758Z,-0.78
2022-11-15T01:46:31.733Z,-0.75
2022-11-15T01:49:22.745Z,-0.73
2022-11-15T01:52:13.519Z,-0.65
2022-11-15T01:55:15.518Z,-0.65
2022-11-15T01:58:06.170Z,-0.62
2022-11-15T02:00:54.945Z,-0.62
2022-11-15T02:03:58.371Z,-0.57
2022-11-15T02:06:48.418Z,-0.56
2022-11-15T02:09:38.405Z,-0.52
2022-11-15T02:12:25.667Z,-0.51
2022-11-15T02:15:13.606Z,-0.45
2022-11-15T02:18:09.240Z,-0.43
2022-11-15T02:21:11.694Z,-0.35
2022-11-15T02:24:13.396Z,-0.32
2022-11-15T02:27:19.042Z,-0.28
2022-11-15T02:30:35.417Z,-0.25
2022-11-15T02:33:37.578Z,-0.26
2022-11-15T02:36:34.422Z,-0.22
2022-11-15T02:39:53.558Z,-0.19
2022-11-15T02:43:10.143Z,-0.18
2022-11-15T02:46:00.570Z,-0.11
2022-11-15T02:48:48.612Z,-0.08
2022-11-15T02:51:36.001Z,-0.06
2022-11-15T02:54:30.813Z,-0.04
2022-11-15T02:57:24.607Z,-0.02
2022-11-15T03:00:17.889Z,0.03
2022-11-15T03:03:22.331Z,0.09
2022-11-15T03:06:39.336Z,0.16
2022-11-15T03:09:42.406Z,0.26
2022-11-15T03:12:53.450Z,0.31
2022-11-15T03:16:05.764Z,0.40
2022-11-15T03:19:00.162Z,0.48
2022-11-15T03:21:49.870Z,0.58
2022-11-15T03:24:39.810Z,0.59
2022-11-15T03:27:36.962Z,0.78
2022-11-15T03:30:23.985Z,0.90
2022-11-15T03:33:13.626Z,0.91
2022-11-15T03:36:01.152Z,0.91
2022-11-15T03:38:48.526Z,0.86
2022-11-15T03:41:45.616Z,0.78
2022-11-15T03:44:47.768Z,0.79
2022-11-15T03:47:41.598Z,0.83
2022-11-15T03:50:29.467Z,0.83
2022-11-15T03:53:17.178Z,0.83
2022-11-15T03:56:04.428Z,0.89
2022-11-15T03:58:51.581Z,0.97
2022-11-15T04:01:39.034Z,1.00
2022-11-15T04:04:26.941Z,0.98
2022-11-15T04:07:14.411Z,1.00
2022-11-15T04:10:05.147Z,0.94
2022-11-15T04:12:52.283Z,1.03
2022-11-15T04:15:39.721Z,0.90
2022-11-15T04:18:26.800Z,0.83
2022-11-15T04:21:32.983Z,0.82
2022-11-15T04:24:20.211Z,0.78
2022-11-15T04:27:07.635Z,0.76
2022-11-15T04:29:54.897Z,0.71
2022-11-15T04:32:41.845Z,0.70
2022-11-15T04:35:29.704Z,0.69
2022-11-15T04:38:16.757Z,0.69
2022-11-15T04:41:03.833Z,0.71
2022-11-15T04:43:50.767Z,0.67
2022-11-15T04:46:37.944Z,0.58
2022-11-15T04:49:24.972Z,0.61
2022-11-15T04:52:12.138Z,0.65
2022-11-15T04:55:03.614Z,0.65
2022-11-15T04:58:01.329Z,0.64
2022-11-15T05:00:49.706Z,0.71
2022-11-15T05:03:55.383Z,0.76
2022-11-15T05:06:42.595Z,0.76
2022-11-15T05:09:29.641Z,0.78
2022-11-15T05:12:16.830Z,0.79
2022-11-15T05:15:04.452Z,0.80
2022-11-15T05:17:51.736Z,0.79
2022-11-15T05:20:38.798Z,0.79
2022-11-15T05:23:25.956Z,0.79
2022-11-15T05:26:13.665Z,0.81
2022-11-15T05:29:01.363Z,0.83
2022-11-15T05:31:48.284Z,0.89
2022-11-15T05:34:35.577Z,0.95
2022-11-15T05:37:22.843Z,0.98
2022-11-15T05:40:10.586Z,1.06
2022-11-15T05:42:58.585Z,1.09
2022-11-15T05:45:45.908Z,1.10
2022-11-15T05:48:34.369Z,1.10
2022-11-15T05:51:24.567Z,1.00
2022-11-15T05:54:13.143Z,0.97
2022-11-15T05:57:01.484Z,1.02
2022-11-15T05:59:48.847Z,1.03
2022-11-15T06:02:37.014Z,1.00
2022-11-15T06:05:24.483Z,0.98
2022-11-15T06:08:11.547Z,1.06
2022-11-15T06:11:04.576Z,1.10
2022-11-15T06:13:52.034Z,1.13
2022-11-15T06:16:39.382Z,1.04
2022-11-15T06:19:26.556Z,1.13
2022-11-15T06:22:13.689Z,1.18
2022-11-15T06:25:05.263Z,1.22
2022-11-15T06:27:57.716Z,1.23
2022-11-15T06:30:47.934Z,1.15
2022-11-15T06:33:37.809Z,1.12
2022-11-15T06:36:24.899Z,1.15
2022-11-15T06:39:12.075Z,1.16
2022-11-15T06:41:59.113Z,1.18
2022-11-15T06:44:46.222Z,1.25
2022-11-15T06:47:33.328Z,1.30
2022-11-15T06:50:20.614Z,1.42
2022-11-15T06:53:07.616Z,1.58
2022-11-15T06:55:55.822Z,1.69
2022-11-15T06:58:43.133Z,1.73
2022-11-15T07:01:30.882Z,1.73
2022-11-15T07:04:18.418Z,1.74
2022-11-15T07:07:05.650Z,1.73
2022-11-15T07:09:52.864Z,1.55
2022-11-15T07:12:40.221Z,1.63
2022-11-15T07:15:28.136Z,1.65
2022-11-15T07:18:16.029Z,1.73
2022-11-15T07:21:07.711Z,1.80
2022-11-15T07:23:55.201Z,1.91
2022-11-15T07:26:42.344Z,2.05
2022-11-15T07:29:29.538Z,2.23
2022-11-15T07:32:16.825Z,2.24
2022-11-15T07:35:03.827Z,2.25
2022-11-15T07:38:02.435Z,2.25
2022-11-15T07:40:59.128Z,2.23
2022-11-15T07:43:46.436Z,2.26
2022-11-15T07:46:34.054Z,2.25
2022-11-15T07:49:21.297Z,2.18
2022-11-15T07:52:08.528Z,2.12
2022-11-15T07:54:56.033Z,2.10
2022-11-15T07:57:43.003Z,2.10
2022-11-15T08:00:31.680Z,2.06
2022-11-15T08:03:19.149Z,2.02
2022-11-15T08:06:07.280Z,2.01
2022-11-15T08:08:54.480Z,2.01
2022-11-15T08:11:41.425Z,2.00
2022-11-15T08:14:28.984Z,1.96
2022-11-15T08:17:18.942Z,1.93
2022-11-15T08:20:06.581Z,1.91
2022-11-15T08:22:54.091Z,1.94
2022-11-15T08:25:41.993Z,1.92
2022-11-15T08:28:29.267Z,1.78
2022-11-15T08:31:19.042Z,1.78
2022-11-15T08:34:07.417Z,1.76
2022-11-15T08:36:54.918Z,1.74
2022-11-15T08:39:42.235Z,1.74
2022-11-15T08:42:31.527Z,1.73
2022-11-15T08:45:19.098Z,1.70
2022-11-15T08:48:07.497Z,1.70
2022-11-15T08:50:58.545Z,1.73
2022-11-15T08:53:45.696Z,1.71
2022-11-15T08:56:33.013Z,1.69
2022-11-15T08:59:20.438Z,1.68
2022-11-15T09:02:08.522Z,1.65
2022-11-15T09:04:55.794Z,1.64
2022-11-15T09:07:43.077Z,1.58
2022-11-15T09:10:30.362Z,1.60
2022-11-15T09:13:17.961Z,1.60
2022-11-15T09:16:05.675Z,1.62
2022-11-15T09:18:52.843Z,1.61
2022-11-15T09:21:40.102Z,1.58
2022-11-15T09:24:27.394Z,1.50
2022-11-15T09:27:14.892Z,1.47
2022-11-15T09:30:02.479Z,1.43
2022-11-15T09:32:49.930Z,1.40
2022-11-15T09:35:37.369Z,1.30
2022-11-15T09:38:24.368Z,1.19
2022-11-15T09:41:14.790Z,1.06
2022-11-15T09:44:38.771Z,0.96
2022-11-15T09:47:34.563Z,0.89
2022-11-15T09:50:37.274Z,0.73
2022-11-15T09:53:06.309Z,0.86
2022-11-15T09:55:46.760Z,0.78
2022-11-15T09:58:24.738Z,0.80
2022-11-15T10:00:55.296Z,0.76
2022-11-15T10:03:32.707Z,0.80
2022-11-15T10:06:05.834Z,0.76
2022-11-15T10:09:07.985Z,0.78
2022-11-15T10:11:39.763Z,0.74
2022-11-15T10:14:21.645Z,0.66
2022-11-15T10:16:56.106Z,0.70
2022-11-15T10:19:34.138Z,0.65
2022-11-15T10:22:24.100Z,0.63
2022-11-15T10:25:02.489Z,0.62
2022-11-15T10:27:32.004Z,0.61
2022-11-15T10:30:00.769Z,0.61
2022-11-15T10:32:38.043Z,0.63
2022-11-15T10:35:30.706Z,0.63
2022-11-15T10:38:17.462Z,0.64
2022-11-15T10:43:31.824Z,0.63
2022-11-15T10:46:45.621Z,0.61
2022-11-15T10:49:23.150Z,0.63
2022-11-15T10:52:01.026Z,0.61
2022-11-15T10:54:36.150Z,0.83
2022-11-15T10:57:14.253Z,0.92
2022-11-15T10:59:48.923Z,0.99
2022-11-15T11:02:59.192Z,1.05
2022-11-15T11:05:43.092Z,1.11
2022-11-15T11:08:12.544Z,1.16
2022-11-15T11:10:57.182Z,1.21
2022-11-15T11:13:41.057Z,1.24
2022-11-15T11:16:17.212Z,1.29
2022-11-15T11:19:09.976Z,1.30
2022-11-15T11:21:56.001Z,1.32
2022-11-15T11:24:33.732Z,1.38
2022-11-15T11:27:40.892Z,1.41
2022-11-15T11:30:25.063Z,1.48
2022-11-15T11:33:29.781Z,1.52
2022-11-15T11:36:26.208Z,1.60
2022-11-15T11:39:16.357Z,1.63
2022-11-15T11:42:06.259Z,1.61
2022-11-15T11:44:47.367Z,1.68
2022-11-15T11:47:35.282Z,1.72
2022-11-15T11:50:30.523Z,1.67
2022-11-15T11:53:06.808Z,1.76
2022-11-15T11:55:55.579Z,1.80
2022-11-15T11:58:42.031Z,1.84
2022-11-15T12:01:34.159Z,1.88
2022-11-15T12:04:18.346Z,1.92
2022-11-15T12:06:51.023Z,1.95
2022-11-15T12:09:45.853Z,1.97
2022-11-15T12:12:49.046Z,2.01
2022-11-15T12:15:30.086Z,1.91
2022-11-15T12:18:00.096Z,2.05
2022-11-15T12:20:34.720Z,2.06
2022-11-15T12:23:36.172Z,2.08
2022-11-15T12:26:19.177Z,2.08
2022-11-15T12:29:06.314Z,2.09
2022-11-15T12:31:36.391Z,2.13
2022-11-15T12:34:22.184Z,2.12
2022-11-15T12:36:52.843Z,2.14
2022-11-15T12:39:22.454Z,2.14
2022-11-15T12:41:57.153Z,2.14
2022-11-15T12:44:38.970Z,2.15
2022-11-15T12:47:10.703Z,2.17
2022-11-15T12:49:39.777Z,2.14
2022-11-15T12:52:10.470Z,2.16
2022-11-15T12:54:42.185Z,2.16
2022-11-15T12:57:17.052Z,2.16
2022-11-15T13:00:05.810Z,2.17
2022-11-15T13:02:48.047Z,2.18
2022-11-15T13:05:24.158Z,2.21
2022-11-15T13:08:00.660Z,2.13
2022-11-15T13:10:29.541Z,2.09
2022-11-15T13:12:59.728Z,1.97
2022-11-15T13:15:39.538Z,1.80
2022-11-15T13:18:38.093Z,1.57
2022-11-15T13:21:39.638Z,1.60
2022-11-15T13:24:17.589Z,1.51
2022-11-15T13:26:47.560Z,1.48
2022-11-15T13:29:19.219Z,1.51
2022-11-15T13:31:49.031Z,1.58
2022-11-15T13:34:49.480Z,1.63
2022-11-15T13:37:36.024Z,1.65
2022-11-15T13:40:23.795Z,1.69
2022-11-15T13:42:53.110Z,1.68
2022-11-15T13:45:23.078Z,1.73
2022-11-15T13:48:00.927Z,1.71
2022-11-15T13:50:37.987Z,1.67
2022-11-15T13:53:08.155Z,1.77
2022-11-15T13:55:40.015Z,1.84
2022-11-15T13:58:14.175Z,1.87
